Peace River, Alberta

5:11 AM MDT on May 04, 2015 (GMT -0600)
Peace River | | Change Station
CLOSE
Current Station
Airport
Location: Peace River,
Elevation: 1873 ft
Nearby Weather Stations

Elev 1873 ft 56.23 °N, 117.45 °W | Updated 11 minutes ago

Mostly Cloudy
Mostly Cloudy
32 °F
Feels Like 24 °F
N
9
Wind Variable Wind from North

Today is forecast to be nearly the same temperature as yesterday.

Today
High -- | Low -- °F
--% Chance of Precip.
Yesterday
High -- | Low -- °F
Precip. -- in
5:58 AM 9:36 PM
Full, 100% visible
Pressure 30.15 in
Visibility 15.0 miles
Clouds Few 7000 ft
Mostly Cloudy 25000 ft
Windchill 24 °F
Dew Point 28 °F
Humidity 87%
Rainfall 0.00 in
Snow Depth Not available.
UV 0 out of 12
Pollen Not available.
Air Quality Not available.
Flu Activity Not available.
METAR CYPE 041100Z 01008KT 15SM FEW070 BKN250 M00/M02 A3007 RMK AC1CI4 SLP208

More Conditions Fewer Conditions

Pressure 30.15 in
Visibility 15.0 miles
Clouds Few 7000 ft
Mostly Cloudy 25000 ft
Windchill 24 °F
Dew Point 28 °F
Humidity 87%
Rainfall 0.00 in
Snow Depth Not available.
UV 0 out of 12
Pollen Not available.
Air Quality Not available.
Flu Activity Not available.
METAR CYPE 041100Z 01008KT 15SM FEW070 BKN250 M00/M02 A3007 RMK AC1CI4 SLP208

More Conditions Fewer Conditions

10-Day Weather Forecast

Almanac

Astronomy

May. 04, 2015 Rise Set
Actual Time
Civil Twilight
Nautical Twilight
Astronomical Twilight
Moon
Length of Visible Light
Length of Day
Tomorrow will be .
, % of the Moon is Illuminated

Today's Extremes

Country Highs Country Lows

Community

WunderPhotos

Upload Photos

1,818,565 photos uploaded!

WunderBlogs® & News

Nearby

Air Quality

  Air Quality AQ Index Pollutant
Not available.

Snow Depth

Station Depth Elevation

Earthquake Activity

City Distance Mag. Time & Date
Minimum magnitude displayed is 2.5.

Coastal Water Temperatures

Place Temperature

Stations

Nearby Weather Stations

Station Location Temp. Windchill Dew Point Humidity Wind Precip. Elev Updated Type